• Join FlightAware (Why Join?)
  • Login
  • US Flag 
08:56AM EDT


 

Airport Tracker/Info


-or-


 

Live Flight TrackerFlight Track Log ✈ THY1998 ✈ 10-May-2013 ✈ EGKK / LGW - LTBA / IST

Flight Track Log - Related Links

Times and Time Zones

All times are in EDT time to prevent confusion due to time zone crossing. See the THY1998 flight status page for this flight to view local times or setup timezone preferences in your user account.

Time Position Orientation Groundspeed Altitude Reporting Facility
EDT Latitude Longitude Course Direction KTS MPH feet Rate Location/Type
11:02AM 50.8251 1.5569 106° East  Level Estimated
11:03AM 50.7914 1.7302 107° East  Level Estimated
11:04AM 50.7574 1.9033 107° East  Level Estimated
11:05AM 50.7232 2.0762 107° East  Level Estimated
11:06AM 50.6887 2.2488 107° East  Level Estimated
11:07AM 50.6539 2.4211 108° East  Level Estimated
11:08AM 50.6189 2.5933 108° East  Level Estimated
11:09AM 50.5837 2.7651 108° East  Level Estimated
11:10AM 50.5482 2.9367 108° East  Level Estimated
11:11AM 50.5124 3.1080 108° East  Level Estimated
11:12AM 50.4764 3.2791 108° East  Level Estimated
11:13AM 50.4402 3.4499 108° East  Level Estimated
11:14AM 50.4036 3.6204 109° East  Level Estimated
11:15AM 50.3669 3.7907 109° East  Level Estimated
11:16AM 50.3299 3.9607 109° East  Level Estimated
11:17AM 50.2926 4.1304 109° East  Level Estimated
11:18AM 50.2551 4.2999 109° East  Level Estimated
11:19AM 50.2174 4.4691 109° East  Level Estimated
11:20AM 50.1794 4.6380 109° East  Level Estimated
11:21AM 50.1412 4.8067 109° East  Level Estimated
11:22AM 50.1027 4.9751 110° East  Level Estimated
11:23AM 50.0640 5.1432 110° East  Level Estimated
11:24AM 50.0250 5.3111 110° East  Level Estimated
11:25AM 49.9858 5.4787 110° East  Level Estimated
11:26AM 49.9464 5.6460 110° East  Level Estimated
11:27AM 49.9067 5.8130 110° East  Level Estimated
11:28AM 49.8667 5.9798 110° East  Level Estimated
11:29AM 49.8266 6.1463 110° East  Level Estimated
11:30AM 49.7862 6.3125 111° Southeast  Level Estimated
11:31AM 49.7455 6.4784 111° Southeast  Level Estimated
11:32AM 49.7047 6.6441 111° Southeast  Level Estimated
11:33AM 49.6635 6.8095 111° Southeast  Level Estimated
11:34AM 49.6222 6.9745 111° Southeast  Level Estimated
11:35AM 49.5806 7.1393 111° Southeast  Level Estimated
11:36AM 49.5388 7.3039 111° Southeast  Level Estimated
11:37AM 49.4967 7.4681 111° Southeast  Level Estimated
11:38AM 49.4545 7.6321 112° Southeast  Level Estimated
11:39AM 49.4119 7.7958 112° Southeast  Level Estimated
11:40AM 49.3692 7.9592 112° Southeast  Level Estimated
11:41AM 49.3262 8.1223 112° Southeast  Level Estimated
11:42AM 49.2830 8.2851 112° Southeast  Level Estimated
11:43AM 49.2396 8.4477 112° Southeast  Level Estimated
11:44AM 49.1959 8.6099 112° Southeast  Level Estimated
11:45AM 49.1521 8.7719 112° Southeast  Level Estimated
11:46AM 49.1080 8.9336 113° Southeast  Level Estimated
11:47AM 49.0636 9.0950 113° Southeast  Level Estimated
11:48AM 49.0191 9.2561 113° Southeast  Level Estimated
11:49AM 48.9743 9.4169 113° Southeast  Level Estimated
11:50AM 48.9293 9.5774 113° Southeast  Level Estimated
11:51AM 48.8840 9.7377 113° Southeast  Level Estimated
11:52AM 48.8386 9.8976 113° Southeast  Level Estimated
11:53AM 48.7929 10.0573 113° Southeast  Level Estimated
11:54AM 48.7470 10.2166 114° Southeast  Level Estimated
11:55AM 48.7009 10.3757 114° Southeast  Level Estimated
11:56AM 48.6546 10.5345 114° Southeast  Level Estimated
11:57AM 48.6080 10.6930 114° Southeast  Level Estimated
11:58AM 48.5613 10.8512 114° Southeast  Level Estimated
11:59AM 48.5143 11.0091 114° Southeast  Level Estimated
12:00PM 48.4671 11.1667 114° Southeast  Level Estimated
12:01PM 48.4197 11.3240 114° Southeast  Level Estimated
12:02PM 48.3721 11.4810 114° Southeast  Level Estimated
12:03PM 48.3242 11.6378 115° Southeast  Level Estimated
12:04PM 48.2762 11.7942 115° Southeast  Level Estimated
12:05PM 48.2279 11.9503 115° Southeast  Level Estimated
12:06PM 48.1794 12.1062 115° Southeast  Level Estimated
12:07PM 48.1307 12.2617 115° Southeast  Level Estimated
12:08PM 48.0819 12.4170 115° Southeast  Level Estimated
12:09PM 48.0328 12.5720 115° Southeast  Level Estimated
12:10PM 47.9835 12.7266 115° Southeast  Level Estimated
12:11PM 47.9339 12.8810 116° Southeast  Level Estimated
12:12PM 47.8842 13.0351 116° Southeast  Level Estimated
12:13PM 47.8343 13.1888 116° Southeast  Level Estimated
12:14PM 47.7841 13.3423 116° Southeast  Level Estimated
12:15PM 47.7338 13.4955 116° Southeast  Level Estimated
12:16PM 47.6833 13.6484 116° Southeast  Level Estimated
12:17PM 47.6325 13.8010 116° Southeast  Level Estimated
12:18PM 47.5816 13.9533 116° Southeast  Level Estimated
12:19PM 47.5304 14.1053 116° Southeast  Level Estimated
12:20PM 47.4791 14.2570 117° Southeast  Level Estimated
12:21PM 47.4275 14.4084 117° Southeast  Level Estimated
12:22PM 47.3758 14.5595 117° Southeast  Level Estimated
12:23PM 47.3238 14.7103 117° Southeast  Level Estimated
12:24PM 47.2717 14.8608 117° Southeast  Level Estimated
12:25PM 47.2193 15.0110 117° Southeast  Level Estimated
12:26PM 47.1668 15.1609 117° Southeast  Level Estimated
12:27PM 47.1141 15.3106 117° Southeast  Level Estimated
12:28PM 47.0611 15.4599 117° Southeast  Level Estimated
12:29PM 47.0080 15.6089 118° Southeast  Level Estimated
12:30PM 46.9547 15.7577 118° Southeast  Level Estimated
12:31PM 46.9012 15.9061 118° Southeast  Level Estimated
12:32PM 46.8475 16.0542 118° Southeast  Level Estimated
12:33PM 46.7936 16.2021 118° Southeast  Level Estimated
12:34PM 46.7395 16.3496 118° Southeast  Level Estimated
12:35PM 46.6853 16.4969 118° Southeast  Level Estimated
12:36PM 46.6308 16.6438 118° Southeast  Level Estimated
12:37PM 46.5762 16.7905 118° Southeast  Level Estimated
12:38PM 46.5213 16.9368 119° Southeast  Level Estimated
12:39PM 46.4663 17.0829 119° Southeast  Level Estimated
12:40PM 46.4111 17.2287 119° Southeast  Level Estimated
12:41PM 46.3557 17.3742 119° Southeast  Level Estimated
12:42PM 46.3002 17.5193 119° Southeast  Level Estimated
12:43PM 46.2444 17.6642 119° Southeast  Level Estimated
12:44PM 46.1885 17.8088 119° Southeast  Level Estimated
12:45PM 46.1324 17.9531 119° Southeast  Level Estimated
12:46PM 46.0760 18.0971 119° Southeast  Level Estimated
12:47PM 46.0196 18.2408 119° Southeast  Level Estimated
12:48PM 45.9629 18.3843 120° Southeast  Level Estimated
12:49PM 45.9061 18.5274 120° Southeast  Level Estimated
12:50PM 45.8490 18.6702 120° Southeast  Level Estimated
12:51PM 45.7919 18.8127 120° Southeast  Level Estimated
12:52PM 45.7345 18.9550 120° Southeast  Level Estimated
12:53PM 45.6769 19.0969 120° Southeast  Level Estimated
12:54PM 45.6192 19.2386 120° Southeast  Level Estimated
12:55PM 45.5613 19.3800 120° Southeast  Level Estimated
12:56PM 45.5033 19.5210 120° Southeast  Level Estimated
12:57PM 45.4450 19.6618 120° Southeast  Level Estimated
12:58PM 45.3866 19.8023 121° Southeast  Level Estimated
12:59PM 45.3280 19.9425 121° Southeast  Level Estimated
01:00PM 45.2692 20.0824 121° Southeast  Level Estimated
01:01PM 45.2103 20.2220 121° Southeast  Level Estimated
01:02PM 45.1512 20.3614 121° Southeast  Level Estimated
01:03PM 45.0919 20.5004 121° Southeast  Level Estimated
01:04PM 45.0325 20.6392 121° Southeast  Level Estimated
01:05PM 44.9729 20.7776 121° Southeast  Level Estimated
01:06PM 44.9131 20.9158 121° Southeast  Level Estimated
01:07PM 44.8532 21.0537 121° Southeast  Level Estimated
01:08PM 44.7931 21.1913 122° Southeast  Level Estimated
01:09PM 44.7328 21.3286 122° Southeast  Level Estimated
01:10PM 44.6724 21.4657 122° Southeast  Level Estimated
01:11PM 44.6118 21.6024 122° Southeast  Level Estimated
01:12PM 44.5510 21.7389 122° Southeast  Level Estimated
01:13PM 44.4901 21.8750 122° Southeast  Level Estimated
01:14PM 44.4290 22.0109 122° Southeast  Level Estimated
01:15PM 44.3678 22.1465 122° Southeast  Level Estimated
01:16PM 44.3064 22.2819 122° Southeast  Level Estimated
01:17PM 44.2448 22.4169 122° Southeast  Level Estimated
01:18PM 44.1831 22.5517 123° Southeast  Level Estimated
01:19PM 44.1212 22.6861 123° Southeast  Level Estimated
01:20PM 44.0592 22.8203 123° Southeast  Level Estimated
01:21PM 43.9970 22.9542 123° Southeast  Level Estimated
01:22PM 43.9346 23.0879 123° Southeast  Level Estimated
01:23PM 43.8721 23.2212 123° Southeast  Level Estimated
01:24PM 43.8094 23.3543 123° Southeast  Level Estimated
01:25PM 43.7466 23.4871 123° Southeast  Level Estimated
01:26PM 43.6837 23.6196 123° Southeast  Level Estimated
01:27PM 43.6205 23.7518 123° Southeast  Level Estimated
01:28PM 43.5573 23.8838 123° Southeast  Level Estimated
01:29PM 43.4938 24.0155 124° Southeast  Level Estimated
01:30PM 43.4303 24.1469 124° Southeast  Level Estimated
01:31PM 43.3665 24.2780 124° Southeast  Level Estimated
01:32PM 43.3027 24.4088 124° Southeast  Level Estimated
01:33PM 43.2386 24.5394 124° Southeast  Level Estimated
01:34PM 43.1745 24.6697 124° Southeast  Level Estimated
01:35PM 43.1101 24.7997 124° Southeast  Level Estimated
01:36PM 43.0457 24.9295 124° Southeast  Level Estimated
01:37PM 42.9811 25.0590 124° Southeast  Level Estimated
01:38PM 42.9163 25.1882 124° Southeast  Level Estimated
01:39PM 42.8514 25.3171 124° Southeast  Level Estimated
01:40PM 42.7864 25.4458 125° Southeast  Level Estimated
01:41PM 42.7212 25.5742 125° Southeast  Level Estimated
01:42PM 42.6558 25.7023 125° Southeast  Level Estimated
01:43PM 42.5903 25.8302 125° Southeast  Level Estimated
01:44PM 42.5247 25.9578 125° Southeast  Level Estimated
01:45PM 42.4590 26.0851 125° Southeast  Level Estimated
01:46PM 42.3931 26.2122 125° Southeast  Level Estimated
01:47PM 42.3270 26.3389 125° Southeast  Level Estimated
01:48PM 42.2608 26.4655 125° Southeast  Level Estimated
01:49PM 42.1945 26.5917 125° Southeast  Level Estimated
01:50PM 42.1281 26.7177 125° Southeast  Level Estimated
01:51PM 42.0615 26.8435 125° Southeast  Level Estimated
01:52PM 41.9947 26.9689 126° Southeast  Level Estimated
01:53PM 41.9279 27.0941 126° Southeast  Level Estimated
01:54PM 41.8609 27.2190 126° Southeast  Level Estimated
01:55PM 41.7937 27.3437 126° Southeast  Level Estimated
01:56PM 41.7265 27.4681 126° Southeast  Level Estimated
01:57PM 41.6590 27.5923 126° Southeast  Level Estimated
01:58PM 41.5915 27.7162 126° Southeast  Level Estimated
01:59PM 41.5238 27.8398 126° Southeast  Level Estimated
02:00PM 41.4560 27.9632 126° Southeast  Level Estimated
02:01PM 41.3881 28.0863 126° Southeast  Level Estimated
02:02PM 41.3200 28.2092 126° Southeast  Level Estimated
02:03PM 41.2518 28.3318 126° Southeast  Level Estimated
02:04PM 41.1835 28.4541 127° Southeast  Level Estimated
02:05PM 41.1150 28.5762 127° Southeast  Level Estimated
02:06PM 41.0465 28.6980 127° Southeast  Level Estimated
02:07PM 40.9777 28.8196 127° Southeast  Level Estimated
02:08PM 40.9769 28.8211 127° Southeast  Level Estimated
02:09PM 40.9769 28.8211 21° North  Level Estimated
02:10PM 40.9769 28.8211 21° North  Level Estimated
02:11PM 40.9769 28.8211 21° North  Level Estimated
02:12PM 40.9769 28.8211 21° North  Level Estimated
02:13PM 40.9769 28.8211 21° North  Level Estimated
02:14PM 40.9769 28.8211 21° North  Level Estimated
02:15PM 40.9769 28.8211 21° North  Level Estimated
02:16PM 40.9769 28.8211 21° North  Level Estimated
02:17PM 40.9769 28.8211 21° North  Level Estimated
02:18PM 40.9769 28.8211 21° North  Level Estimated
02:19PM 40.9769 28.8211 21° North  Level Estimated
02:20PM 40.9769 28.8211 21° North  Level Estimated
02:21PM 40.9769 28.8211 21° North  Level Estimated
02:22PM 40.9769 28.8211 21° North  Level Estimated
02:23PM 40.9769 28.8211 21° North  Level Estimated